createdAt,value
2022-11-25T00:00:46.983Z,3.32
2022-11-25T00:03:52.665Z,3.29
2022-11-25T00:06:56.666Z,3.24
2022-11-25T00:10:07.785Z,3.21
2022-11-25T00:13:10.816Z,3.14
2022-11-25T00:16:16.690Z,3.10
2022-11-25T00:19:19.465Z,3.08
2022-11-25T00:22:22.894Z,3.04
2022-11-25T00:25:25.791Z,3.02
2022-11-25T00:28:29.289Z,3.06
2022-11-25T00:31:34.750Z,3.09
2022-11-25T00:34:38.117Z,3.12
2022-11-25T00:37:41.255Z,3.18
2022-11-25T00:41:05.065Z,3.22
2022-11-25T00:44:30.384Z,3.27
2022-11-25T00:47:40.012Z,3.32
2022-11-25T00:50:43.574Z,3.34
2022-11-25T00:53:46.527Z,3.34
2022-11-25T00:56:49.564Z,3.29
2022-11-25T00:59:53.428Z,3.25
2022-11-25T01:02:56.796Z,3.23
2022-11-25T01:06:05.091Z,3.15
2022-11-25T01:09:12.008Z,3.10
2022-11-25T01:12:16.059Z,3.05
2022-11-25T01:15:18.802Z,2.94
2022-11-25T01:18:23.095Z,2.82
2022-11-25T01:21:28.344Z,2.69
2022-11-25T01:24:31.374Z,2.59
2022-11-25T01:27:34.084Z,2.47
2022-11-25T01:30:41.042Z,2.38
2022-11-25T01:33:45.100Z,2.32
2022-11-25T01:36:48.550Z,2.29
2022-11-25T01:39:51.513Z,2.23
2022-11-25T01:42:54.642Z,2.18
2022-11-25T01:46:28.239Z,2.20
2022-11-25T01:49:50.158Z,2.16
2022-11-25T01:52:56.086Z,2.14
2022-11-25T01:56:03.776Z,2.09
2022-11-25T01:59:09.280Z,2.13
2022-11-25T02:02:13.061Z,2.12
2022-11-25T02:05:28.452Z,2.13
2022-11-25T02:08:36.861Z,2.23
2022-11-25T02:11:44.268Z,2.29
2022-11-25T02:14:49.600Z,2.29
2022-11-25T02:17:54.263Z,2.25
2022-11-25T02:20:57.745Z,2.17
2022-11-25T02:24:10.781Z,2.07
2022-11-25T02:27:13.940Z,1.96
2022-11-25T02:30:19.370Z,1.89
2022-11-25T02:33:22.337Z,1.81
2022-11-25T02:36:25.083Z,1.76
2022-11-25T02:39:28.761Z,1.69
2022-11-25T02:42:32.975Z,1.59
2022-11-25T02:45:49.151Z,1.57
2022-11-25T02:49:08.509Z,1.60
2022-11-25T02:52:13.748Z,1.65
2022-11-25T02:55:18.800Z,1.66
2022-11-25T02:58:21.957Z,1.63
2022-11-25T03:01:27.744Z,1.59
2022-11-25T03:04:31.357Z,1.56
2022-11-25T03:07:34.151Z,1.54
2022-11-25T03:10:37.955Z,1.51
2022-11-25T03:13:41.464Z,1.50
2022-11-25T03:16:45.076Z,1.52
2022-11-25T03:19:47.907Z,1.49
2022-11-25T03:22:51.298Z,1.50
2022-11-25T03:25:54.500Z,1.58
2022-11-25T03:28:57.587Z,1.78
2022-11-25T03:32:00.141Z,1.85
2022-11-25T03:35:05.732Z,1.88
2022-11-25T03:38:09.015Z,1.89
2022-11-25T03:41:11.900Z,1.85
2022-11-25T03:44:15.022Z,1.75
2022-11-25T03:47:18.922Z,1.76
2022-11-25T03:50:22.595Z,1.79
2022-11-25T03:53:29.945Z,1.81
2022-11-25T03:56:37.719Z,1.77
2022-11-25T03:59:42.998Z,1.77
2022-11-25T04:02:46.052Z,1.74
2022-11-25T04:05:49.584Z,1.69
2022-11-25T04:08:52.433Z,1.71
2022-11-25T04:12:16.626Z,1.66
2022-11-25T04:15:21.953Z,1.64
2022-11-25T04:18:25.692Z,1.68
2022-11-25T04:21:30.129Z,1.71
2022-11-25T04:24:33.734Z,1.79
2022-11-25T04:27:38.813Z,1.84
2022-11-25T04:30:42.396Z,1.79
2022-11-25T04:33:49.612Z,1.73
2022-11-25T04:36:55.648Z,1.62
2022-11-25T04:39:58.358Z,1.53
2022-11-25T04:43:10.395Z,1.49
2022-11-25T04:46:22.926Z,1.49
2022-11-25T04:49:27.786Z,1.51
2022-11-25T04:52:30.891Z,1.62
2022-11-25T04:55:34.095Z,1.76
2022-11-25T04:58:59.223Z,1.86
2022-11-25T05:02:15.985Z,1.97
2022-11-25T05:05:19.221Z,2.04
2022-11-25T05:08:25.964Z,2.06
2022-11-25T05:11:30.671Z,2.06
2022-11-25T05:14:36.318Z,2.04
2022-11-25T05:17:40.075Z,2.03
2022-11-25T05:20:48.809Z,2.01
2022-11-25T05:23:56.156Z,2.01
2022-11-25T05:26:59.221Z,2.02
2022-11-25T05:30:02.630Z,1.98
2022-11-25T05:33:06.320Z,1.96
2022-11-25T05:36:10.305Z,1.94
2022-11-25T05:39:15.685Z,1.88
2022-11-25T05:42:21.329Z,1.84
2022-11-25T05:45:27.749Z,1.80
2022-11-25T05:48:39.824Z,1.75
2022-11-25T05:51:43.785Z,1.70
2022-11-25T05:54:47.727Z,1.61
2022-11-25T05:57:51.899Z,1.53
2022-11-25T06:00:58.627Z,1.52
2022-11-25T06:04:05.602Z,1.56
2022-11-25T06:07:08.312Z,1.64
2022-11-25T06:10:12.477Z,1.75
2022-11-25T06:13:23.788Z,1.83
2022-11-25T06:16:29.627Z,1.90
2022-11-25T06:19:36.170Z,2.00
2022-11-25T06:22:39.448Z,2.08
2022-11-25T06:25:46.604Z,2.17
2022-11-25T06:28:57.735Z,2.24
2022-11-25T06:32:00.737Z,2.31
2022-11-25T06:35:08.140Z,2.34
2022-11-25T06:38:13.062Z,2.32
2022-11-25T06:41:18.625Z,2.33
2022-11-25T06:44:26.531Z,2.35
2022-11-25T06:47:31.864Z,2.57
2022-11-25T06:50:35.474Z,3.83
2022-11-25T06:53:39.145Z,5.21
2022-11-25T06:56:43.670Z,6.27
2022-11-25T06:59:49.433Z,6.70
2022-11-25T07:02:58.000Z,7.44
2022-11-25T07:06:11.988Z,8.16
2022-11-25T07:09:20.217Z,8.51
2022-11-25T07:12:24.725Z,8.90
2022-11-25T07:15:31.737Z,9.70
2022-11-25T07:18:38.737Z,10.39
2022-11-25T07:21:45.524Z,11.01
2022-11-25T07:24:49.063Z,11.73
2022-11-25T07:27:55.746Z,12.18
2022-11-25T07:31:23.145Z,12.30
2022-11-25T07:34:26.435Z,12.18
2022-11-25T07:37:31.252Z,12.53
2022-11-25T07:40:33.931Z,13.15
2022-11-25T07:43:48.709Z,13.43
2022-11-25T07:46:52.838Z,13.18
2022-11-25T07:49:57.598Z,12.99
2022-11-25T07:53:03.737Z,12.71
2022-11-25T07:56:12.430Z,12.86
2022-11-25T07:59:18.981Z,12.68
2022-11-25T08:02:29.613Z,12.68
2022-11-25T08:05:34.207Z,12.76
2022-11-25T08:08:38.503Z,13.10
2022-11-25T08:11:42.417Z,13.18
2022-11-25T08:14:46.621Z,12.66
2022-11-25T08:17:52.726Z,12.28
2022-11-25T08:21:07.590Z,12.07
2022-11-25T08:24:16.156Z,12.41
2022-11-25T08:27:22.037Z,12.30
2022-11-25T08:30:29.569Z,12.44
2022-11-25T08:33:34.597Z,12.72
2022-11-25T08:36:38.037Z,13.21
2022-11-25T08:39:52.251Z,13.08
2022-11-25T08:42:56.287Z,12.86
2022-11-25T08:45:59.158Z,12.03
2022-11-25T08:49:07.257Z,11.26
2022-11-25T08:52:15.050Z,11.22
2022-11-25T08:55:20.049Z,11.21
2022-11-25T08:58:24.815Z,10.88
2022-11-25T09:01:28.496Z,10.83
2022-11-25T09:04:33.857Z,11.25
2022-11-25T09:07:37.625Z,11.28
2022-11-25T09:10:51.714Z,11.92
2022-11-25T09:13:55.765Z,13.35
2022-11-25T09:17:02.163Z,13.27
2022-11-25T09:20:06.733Z,11.77
2022-11-25T09:23:10.196Z,11.19
2022-11-25T09:26:24.737Z,10.03
2022-11-25T09:29:31.812Z,10.18
2022-11-25T09:32:36.517Z,10.28
2022-11-25T09:35:41.824Z,9.76
2022-11-25T09:38:54.893Z,9.57
2022-11-25T09:42:44.457Z,10.61
2022-11-25T09:46:28.712Z,11.78
2022-11-25T09:49:53.507Z,12.45
2022-11-25T09:53:09.482Z,12.87
2022-11-25T09:56:43.874Z,12.77
2022-11-25T10:00:18.008Z,11.62
2022-11-25T10:03:43.455Z,12.60
2022-11-25T10:06:55.548Z,12.32
2022-11-25T10:10:03.799Z,12.56
2022-11-25T10:13:48.734Z,12.22
2022-11-25T10:17:21.521Z,12.18
2022-11-25T10:20:39.520Z,13.16
2022-11-25T10:23:50.591Z,13.08
2022-11-25T10:27:08.596Z,11.73
2022-11-25T10:30:17.739Z,11.48
2022-11-25T10:33:29.685Z,10.54
2022-11-25T10:36:36.753Z,9.93
2022-11-25T10:39:40.795Z,9.89
2022-11-25T10:42:48.359Z,9.69
2022-11-25T10:45:59.623Z,9.62
2022-11-25T10:49:34.559Z,9.63
2022-11-25T10:52:44.656Z,9.49
2022-11-25T10:56:04.563Z,9.54
2022-11-25T10:59:30.691Z,9.55
2022-11-25T11:02:34.654Z,9.60
2022-11-25T11:05:46.808Z,9.64
2022-11-25T11:09:03.521Z,9.71
2022-11-25T11:12:21.053Z,9.69
2022-11-25T11:15:27.013Z,9.67
2022-11-25T11:18:46.513Z,9.86
2022-11-25T11:21:50.148Z,9.87
2022-11-25T11:25:07.555Z,9.94
2022-11-25T11:28:30.893Z,10.00
2022-11-25T11:32:01.469Z,9.96
2022-11-25T11:35:21.504Z,10.07
2022-11-25T11:38:44.494Z,10.01
2022-11-25T11:42:05.098Z,10.01
2022-11-25T11:45:35.324Z,10.06
2022-11-25T11:48:43.860Z,10.08
2022-11-25T11:52:01.944Z,10.11
2022-11-25T11:55:25.884Z,10.10
2022-11-25T11:58:46.049Z,9.97
2022-11-25T12:01:59.678Z,9.90
2022-11-25T12:05:12.034Z,9.85
2022-11-25T12:08:26.944Z,9.73
2022-11-25T12:11:40.245Z,9.72
2022-11-25T12:14:51.200Z,9.61
2022-11-25T12:18:14.797Z,9.59
2022-11-25T12:21:36.239Z,9.60
2022-11-25T12:24:56.759Z,9.58
2022-11-25T12:28:08.079Z,9.57
2022-11-25T12:31:25.702Z,9.64
2022-11-25T12:34:46.578Z,9.65
2022-11-25T12:38:04.579Z,9.71
2022-11-25T12:41:18.888Z,9.76
2022-11-25T12:44:36.836Z,9.85
2022-11-25T12:47:41.074Z,9.98
2022-11-25T12:51:09.458Z,10.05
2022-11-25T12:54:33.357Z,10.14
2022-11-25T12:57:55.886Z,10.26
2022-11-25T13:01:26.374Z,10.31
2022-11-25T13:04:48.746Z,10.25
2022-11-25T13:08:06.328Z,10.06
2022-11-25T13:11:36.371Z,9.82
2022-11-25T13:15:04.054Z,9.65
2022-11-25T13:18:14.678Z,9.47
2022-11-25T13:21:23.531Z,9.31
2022-11-25T13:24:34.226Z,9.20
2022-11-25T13:27:40.310Z,9.11
2022-11-25T13:30:55.619Z,9.04
2022-11-25T13:34:07.644Z,8.95
2022-11-25T13:37:36.623Z,8.88
2022-11-25T13:40:41.844Z,8.82
2022-11-25T13:44:05.465Z,8.75
2022-11-25T13:47:39.091Z,8.74
2022-11-25T13:54:27.679Z,8.63
2022-11-25T13:57:34.923Z,8.52
2022-11-25T14:00:43.116Z,8.44
2022-11-25T14:03:50.545Z,8.36
2022-11-25T14:06:55.211Z,8.26
2022-11-25T14:10:25.889Z,8.22
2022-11-25T14:13:47.018Z,8.15
2022-11-25T14:17:12.345Z,8.10
2022-11-25T14:20:42.549Z,8.21
2022-11-25T14:24:13.168Z,8.23
2022-11-25T14:27:33.787Z,8.04
2022-11-25T14:30:53.408Z,7.90
2022-11-25T14:34:05.751Z,7.77
2022-11-25T14:37:17.798Z,7.58
2022-11-25T14:40:53.055Z,7.43
2022-11-25T14:44:07.541Z,7.31
2022-11-25T14:47:11.588Z,7.22
2022-11-25T14:50:34.243Z,7.16
2022-11-25T14:53:47.820Z,7.10
2022-11-25T14:56:53.372Z,7.02
2022-11-25T15:00:02.849Z,6.99
2022-11-25T15:03:23.542Z,6.95
2022-11-25T15:06:39.444Z,6.83
2022-11-25T15:09:51.596Z,6.68
2022-11-25T15:13:00.708Z,6.58
2022-11-25T15:16:14.186Z,6.44
2022-11-25T15:19:21.827Z,6.30
2022-11-25T15:22:27.519Z,6.19
2022-11-25T15:25:32.052Z,6.06
2022-11-25T15:28:40.485Z,5.92
2022-11-25T15:31:57.646Z,5.80
2022-11-25T15:35:05.286Z,5.68
2022-11-25T15:38:20.643Z,5.60
2022-11-25T15:41:35.949Z,5.53
2022-11-25T15:44:56.563Z,5.50
2022-11-25T15:48:05.575Z,5.42
2022-11-25T15:51:57.422Z,5.31
2022-11-25T15:55:07.419Z,5.20
2022-11-25T15:58:20.347Z,5.16
2022-11-25T16:01:30.621Z,5.14
2022-11-25T16:04:53.494Z,5.16
2022-11-25T16:07:56.327Z,5.12
2022-11-25T16:11:17.196Z,5.10
2022-11-25T16:14:29.515Z,4.95
2022-11-25T16:17:39.938Z,4.91
2022-11-25T16:20:55.677Z,4.83
2022-11-25T16:24:42.529Z,4.82
2022-11-25T16:27:49.329Z,4.75
2022-11-25T16:30:57.834Z,4.68
2022-11-25T16:34:14.494Z,4.65
2022-11-25T16:37:17.550Z,4.68
2022-11-25T16:40:33.451Z,4.68
2022-11-25T16:43:47.914Z,4.71
2022-11-25T16:46:51.914Z,4.80
2022-11-25T16:49:57.827Z,4.85
2022-11-25T16:53:01.618Z,4.98
2022-11-25T16:56:27.572Z,5.13
2022-11-25T16:59:38.966Z,5.26
2022-11-25T17:02:51.019Z,5.35
2022-11-25T17:06:00.486Z,5.42
2022-11-25T17:09:06.025Z,5.49
2022-11-25T17:12:31.601Z,5.51
2022-11-25T17:15:39.751Z,5.50
2022-11-25T17:18:44.778Z,5.47
2022-11-25T17:21:49.523Z,5.45
2022-11-25T17:24:54.038Z,5.44
2022-11-25T17:28:00.227Z,5.30
2022-11-25T17:31:09.894Z,5.19
2022-11-25T17:34:17.499Z,5.16
2022-11-25T17:37:25.009Z,5.01
2022-11-25T17:40:33.994Z,4.89
2022-11-25T17:43:42.251Z,4.83
2022-11-25T17:46:53.447Z,4.71
2022-11-25T17:50:17.529Z,4.63
2022-11-25T17:53:35.474Z,4.54
2022-11-25T17:56:51.785Z,4.41
2022-11-25T18:00:00.439Z,4.29
2022-11-25T18:03:20.496Z,4.17
2022-11-25T18:06:31.618Z,4.07
2022-11-25T18:09:45.583Z,3.93
2022-11-25T18:12:56.820Z,3.84
2022-11-25T18:16:03.677Z,3.75
2022-11-25T18:19:12.470Z,3.66
2022-11-25T18:22:20.706Z,3.63
2022-11-25T18:25:37.676Z,3.58
2022-11-25T18:28:44.349Z,3.57
2022-11-25T18:31:59.614Z,3.54
2022-11-25T18:35:24.453Z,3.48
2022-11-25T18:38:41.016Z,3.47
2022-11-25T18:42:00.074Z,3.44
2022-11-25T18:45:31.561Z,3.37
2022-11-25T18:48:37.231Z,3.30
2022-11-25T18:51:46.578Z,3.29
2022-11-25T18:54:52.646Z,3.27
2022-11-25T18:58:20.846Z,3.18
2022-11-25T19:01:29.466Z,3.20
2022-11-25T19:04:32.993Z,3.18
2022-11-25T19:07:46.535Z,3.18
2022-11-25T19:11:03.796Z,3.17
2022-11-25T19:14:15.372Z,3.08
2022-11-25T19:17:24.704Z,3.02
2022-11-25T19:20:30.600Z,2.93
2022-11-25T19:23:40.901Z,2.91
2022-11-25T19:26:48.225Z,2.89
2022-11-25T19:30:04.617Z,2.86
2022-11-25T19:33:20.349Z,2.83
2022-11-25T19:36:30.869Z,2.79
2022-11-25T19:39:49.262Z,2.70
2022-11-25T19:43:00.428Z,2.63
2022-11-25T19:46:03.743Z,2.53
2022-11-25T19:49:08.471Z,2.45
2022-11-25T19:52:22.717Z,2.40
2022-11-25T19:55:31.551Z,2.31
2022-11-25T19:58:38.999Z,2.29
2022-11-25T20:01:46.881Z,2.20
2022-11-25T20:04:57.512Z,2.15
2022-11-25T20:08:08.460Z,2.10
2022-11-25T20:11:24.696Z,2.03
2022-11-25T20:14:35.819Z,2.00
2022-11-25T20:17:49.762Z,1.91
2022-11-25T20:21:06.105Z,1.99
2022-11-25T20:24:23.411Z,2.00
2022-11-25T20:27:29.525Z,1.99
2022-11-25T20:30:33.781Z,1.98
2022-11-25T20:33:47.468Z,1.99
2022-11-25T20:36:51.841Z,1.91
2022-11-25T20:40:00.372Z,2.00
2022-11-25T20:43:12.706Z,1.95
2022-11-25T20:46:24.614Z,2.03
2022-11-25T20:49:29.539Z,2.10
2022-11-25T20:52:41.513Z,2.07
2022-11-25T20:55:49.505Z,2.03
2022-11-25T20:58:53.778Z,2.09
2022-11-25T21:01:57.895Z,2.16
2022-11-25T21:05:02.667Z,2.20
2022-11-25T21:08:23.367Z,2.14
2022-11-25T21:11:28.628Z,2.06
2022-11-25T21:14:36.097Z,2.05
2022-11-25T21:17:40.914Z,1.98
2022-11-25T21:20:47.837Z,2.09
2022-11-25T21:23:59.593Z,2.11
2022-11-25T21:27:15.629Z,2.17
2022-11-25T21:30:20.225Z,2.08
2022-11-25T21:33:31.583Z,2.01
2022-11-25T21:36:45.702Z,1.96
2022-11-25T21:39:59.761Z,1.98
2022-11-25T21:43:25.545Z,1.99
2022-11-25T21:46:28.981Z,2.09
2022-11-25T21:49:32.140Z,2.10
2022-11-25T21:52:36.060Z,2.11
2022-11-25T21:55:42.414Z,2.13
2022-11-25T21:58:53.075Z,2.15
2022-11-25T22:01:57.544Z,2.12
2022-11-25T22:05:01.628Z,2.14
2022-11-25T22:08:11.878Z,2.16
2022-11-25T22:11:18.183Z,2.16
2022-11-25T22:14:34.148Z,2.09
2022-11-25T22:17:38.523Z,2.07
2022-11-25T22:20:41.394Z,2.10
2022-11-25T22:23:46.409Z,2.11
2022-11-25T22:26:57.816Z,2.08
2022-11-25T22:30:15.640Z,2.04
2022-11-25T22:33:26.131Z,2.00
2022-11-25T22:36:37.473Z,2.03
2022-11-25T22:39:41.546Z,2.09
2022-11-25T22:42:49.264Z,2.13
2022-11-25T22:46:00.498Z,2.18
2022-11-25T22:49:40.060Z,2.07
2022-11-25T22:52:43.922Z,2.11
2022-11-25T22:55:47.261Z,2.10
2022-11-25T22:59:00.423Z,2.20
2022-11-25T23:02:04.051Z,2.25
2022-11-25T23:05:35.897Z,2.30
2022-11-25T23:08:39.944Z,2.11
2022-11-25T23:11:44.612Z,2.16
2022-11-25T23:14:48.746Z,2.18
2022-11-25T23:17:57.884Z,2.10
2022-11-25T23:21:16.880Z,2.13
2022-11-25T23:24:20.589Z,2.19
2022-11-25T23:27:24.126Z,2.19
2022-11-25T23:30:33.964Z,2.22
2022-11-25T23:33:38.459Z,2.22
2022-11-25T23:36:45.197Z,2.25
2022-11-25T23:39:52.540Z,2.25
2022-11-25T23:43:00.558Z,2.27
2022-11-25T23:46:03.885Z,2.22
2022-11-25T23:49:22.476Z,2.25
2022-11-25T23:52:28.088Z,2.29
2022-11-25T23:55:38.625Z,2.24
2022-11-25T23:58:41.500Z,2.28
